Time;durP1;ratioP1;P1;durP2;ratioP2;P2;SDS_P1;SDS_P2;PMS_P1;PMS_P2;Temp;Humidity;BMP_temperature;BMP_pressure;BME280_temperature;BME280_humidity;BME280_pressure;Samples;Min_cycle;Max_cycle;Signal;HPM_P1;HPM_P2
2024/02/05 00:01:40;;;;;;;15.70;3.60;;;15.80;82.20;;;;;;4154290;28;20503;-50
2024/02/05 00:04:21;;;;;;;18.02;4.10;;;15.80;82.10;;;;;;4154924;28;20075;-52
2024/02/05 00:07:02;;;;;;;17.20;4.18;;;15.80;82.10;;;;;;4152548;28;20056;-50
2024/02/05 00:09:43;;;;;;;20.05;4.47;;;15.80;82.10;;;;;;4153058;28;20056;-49
2024/02/05 00:12:25;;;;;;;15.38;3.97;;;15.80;82.10;;;;;;4154197;28;20098;-49
2024/02/05 00:15:06;;;;;;;;;;;15.80;82.20;;;;;;4153676;28;20056;-50
2024/02/05 00:17:49;;;;;;;15.07;3.20;;;15.70;82.10;;;;;;4152546;28;19928;-50
2024/02/05 00:20:29;;;;;;;20.10;3.78;;;15.80;82.40;;;;;;4153742;28;20187;-50
2024/02/05 00:23:10;;;;;;;20.92;3.72;;;15.70;82.10;;;;;;4137561;28;20057;-50
2024/02/05 00:25:51;;;;;;;10.75;2.80;;;15.70;81.80;;;;;;4153920;28;20505;-52
2024/02/05 00:28:33;;;;;;;16.65;4.18;;;15.70;82.10;;;;;;4142026;28;20135;-52
2024/02/05 00:31:14;;;;;;;18.58;4.10;;;15.70;82.30;;;;;;4137836;28;20292;-50
2024/02/05 00:33:56;;;;;;;19.52;3.92;;;15.70;82.30;;;;;;4137430;28;20053;-50
2024/02/05 00:36:37;;;;;;;15.82;4.13;;;15.70;82.30;;;;;;4150248;28;20151;-49
2024/02/05 00:39:18;;;;;;;19.25;4.55;;;15.70;82.10;;;;;;4154101;28;20056;-51
2024/02/05 00:42:00;;;;;;;16.45;4.25;;;15.70;82.40;;;;;;4153751;28;20509;-50
2024/02/05 00:44:41;;;;;;;18.85;4.88;;;15.70;82.30;;;;;;4152508;28;20068;-50
2024/02/05 00:47:22;;;;;;;14.77;4.40;;;15.70;82.30;;;;;;4152365;28;20056;-50
2024/02/05 00:50:05;;;;;;;18.60;3.67;;;15.70;82.30;;;;;;4153925;28;20056;-60
2024/02/05 00:52:47;;;;;;;24.15;4.10;;;15.70;82.10;;;;;;4153040;28;20052;-51
2024/02/05 00:55:28;;;;;;;23.33;4.28;;;15.70;83.10;;;;;;4154691;28;20068;-59
2024/02/05 00:58:09;;;;;;;17.52;4.07;;;15.70;83.10;;;;;;4157260;28;20148;-61
2024/02/05 01:00:50;;;;;;;17.38;4.07;;;15.60;82.40;;;;;;4157073;28;20188;-61
2024/02/05 01:03:31;;;;;;;14.45;3.20;;;15.60;82.40;;;;;;4149208;28;20056;-61
2024/02/05 01:06:13;;;;;;;18.98;3.65;;;15.60;82.40;;;;;;4156486;28;20149;-61
2024/02/05 01:08:54;;;;;;;14.20;3.80;;;15.70;82.60;;;;;;4141026;28;20123;-61
2024/02/05 01:11:36;;;;;;;17.10;4.03;;;15.60;82.50;;;;;;4136849;28;20513;-62
2024/02/05 01:14:17;;;;;;;13.82;3.50;;;15.60;82.70;;;;;;4140955;28;20096;-61
2024/02/05 01:16:58;;;;;;;21.90;3.95;;;15.60;82.40;;;;;;4154702;28;20111;-60
2024/02/05 01:19:39;;;;;;;18.80;3.65;;;15.60;82.30;;;;;;4156581;28;20060;-60
2024/02/05 01:22:21;;;;;;;26.98;5.47;;;15.70;82.50;;;;;;4156328;28;20078;-60
2024/02/05 01:25:04;;;;;;;17.00;3.80;;;15.60;82.50;;;;;;4155791;28;20127;-61
2024/02/05 01:27:45;;;;;;;21.25;4.53;;;15.60;82.70;;;;;;4156604;28;20064;-60
2024/02/05 01:30:27;;;;;;;23.63;4.90;;;15.60;82.70;;;;;;4157228;28;20057;-60
2024/02/05 01:33:09;;;;;;;17.42;3.53;;;15.60;82.60;;;;;;4152805;28;20063;-61
2024/02/05 01:35:50;;;;;;;16.60;4.60;;;15.60;83.60;;;;;;4156479;28;20084;-60
2024/02/05 01:38:32;;;;;;;24.33;4.53;;;15.60;83.60;;;;;;4156559;28;20184;-60
2024/02/05 01:41:14;;;;;;;22.63;4.55;;;15.60;82.70;;;;;;4140555;28;20061;-61
2024/02/05 01:43:55;;;;;;;16.95;3.60;;;15.60;82.70;;;;;;4157199;28;20842;-62
2024/02/05 01:46:36;;;;;;;20.88;4.72;;;15.60;82.60;;;;;;4155569;28;20127;-60
2024/02/05 01:49:18;;;;;;;17.25;3.47;;;15.60;82.70;;;;;;4156603;28;20143;-60
2024/02/05 01:52:03;;;;;;;20.45;4.60;;;15.60;82.60;;;;;;4155522;28;20056;-60
2024/02/05 01:54:49;;;;;;;24.70;5.45;;;15.60;82.40;;;;;;4140606;28;20497;-60
2024/02/05 01:57:30;;;;;;;18.58;3.88;;;15.60;82.30;;;;;;4156155;28;20176;-60
2024/02/05 02:00:14;;;;;;;16.38;4.13;;;15.60;82.50;;;;;;4138663;28;20514;-59
2024/02/05 02:02:56;;;;;;;16.20;3.55;;;15.60;82.50;;;;;;4156524;28;20057;-59
2024/02/05 02:05:38;;;;;;;16.85;3.72;;;15.50;82.40;;;;;;4155759;28;20056;-59
2024/02/05 02:08:22;;;;;;;18.50;4.68;;;15.50;82.60;;;;;;4144650;28;20052;-61
2024/02/05 02:11:05;;;;;;;14.07;4.22;;;15.50;82.70;;;;;;4151903;28;20098;-59
2024/02/05 02:13:47;;;;;;;17.75;3.83;;;15.50;82.60;;;;;;4154987;28;20381;-49
2024/02/05 02:16:30;;;;;;;17.35;4.43;;;15.50;82.60;;;;;;4146093;28;20057;-51
2024/02/05 02:19:20;;;;;;;17.27;4.22;;;15.60;82.70;;;;;;4156317;28;20358;-49
2024/02/05 02:22:09;;;;;;;19.83;3.72;;;15.50;82.60;;;;;;4156126;28;20371;-60
2024/02/05 02:24:52;;;;;;;20.67;3.17;;;15.50;82.70;;;;;;4156648;28;20057;-61
2024/02/05 02:27:33;;;;;;;26.92;5.13;;;15.50;82.70;;;;;;4154190;28;20215;-61
2024/02/05 02:30:17;;;;;;;18.40;3.78;;;15.50;82.70;;;;;;4155893;28;20079;-61
2024/02/05 02:33:08;;;;;;;23.05;4.43;;;15.50;82.60;;;;;;4156573;28;20106;-62
2024/02/05 02:35:54;;;;;;;21.97;4.33;;;15.50;82.50;;;;;;4156138;28;20445;-49
2024/02/05 02:38:41;;;;;;;17.45;4.20;;;15.50;82.60;;;;;;4154532;28;20072;-52
2024/02/05 02:41:27;;;;;;;23.67;4.63;;;15.50;82.70;;;;;;4166490;28;20052;-52
2024/02/05 02:44:08;;;;;;;20.25;4.32;;;15.50;82.60;;;;;;4154277;28;20087;-52
2024/02/05 02:46:51;;;;;;;27.55;5.13;;;15.50;82.80;;;;;;4154810;28;20075;-50
2024/02/05 02:49:32;;;;;;;11.65;3.17;;;15.50;82.70;;;;;;4155362;28;20048;-51
2024/02/05 02:52:13;;;;;;;18.73;4.95;;;15.50;82.80;;;;;;4155652;28;20493;-51
2024/02/05 02:54:54;;;;;;;16.90;3.97;;;15.50;82.80;;;;;;4154954;28;20060;-61
2024/02/05 02:57:36;;;;;;;21.10;4.45;;;15.50;82.60;;;;;;4155322;28;20064;-61
2024/02/05 03:00:18;;;;;;;23.48;5.10;;;15.60;82.50;;;;;;4155780;28;20500;-61
2024/02/05 03:02:58;;;;;;;21.48;3.88;;;15.60;82.50;;;;;;4153901;28;20052;-60
2024/02/05 03:05:39;;;;;;;20.87;3.97;;;15.60;83.10;;;;;;4154811;28;20102;-61
2024/02/05 03:08:20;;;;;;;20.30;4.17;;;15.60;82.40;;;;;;4155261;28;20183;-61
2024/02/05 03:11:01;;;;;;;23.77;4.68;;;15.70;82.30;;;;;;4155077;28;20311;-62
2024/02/05 03:13:43;;;;;;;25.60;5.25;;;15.70;82.40;;;;;;4154325;28;20409;-52
2024/02/05 03:16:24;;;;;;;15.45;4.43;;;15.70;82.10;;;;;;4155056;28;20523;-53
2024/02/05 03:19:05;;;;;;;24.48;5.15;;;15.70;81.80;;;;;;4154392;28;20079;-51
2024/02/05 03:21:46;;;;;;;22.60;4.40;;;15.80;81.80;;;;;;4154891;28;20069;-60
2024/02/05 03:24:27;;;;;;;26.13;4.82;;;15.80;81.80;;;;;;4154468;28;20084;-59
2024/02/05 03:27:09;;;;;;;17.58;4.15;;;15.80;81.70;;;;;;4153307;28;20060;-60
2024/02/05 03:29:52;;;;;;;17.25;3.88;;;15.80;81.60;;;;;;4130962;28;20715;-51
2024/02/05 03:32:32;;;;;;;15.32;4.53;;;15.80;81.80;;;;;;4154429;28;20076;-52
2024/02/05 03:35:15;;;;;;;13.00;5.18;;;15.80;81.90;;;;;;4138548;28;20060;-53
2024/02/05 03:37:57;;;;;;;21.33;4.85;;;15.80;81.80;;;;;;4138350;28;20056;-54
2024/02/05 03:40:38;;;;;;;15.60;3.35;;;15.90;81.40;;;;;;4138989;28;20060;-51
2024/02/05 03:43:19;;;;;;;25.77;5.07;;;15.90;81.40;;;;;;4122426;28;20128;-52
2024/02/05 03:46:01;;;;;;;21.02;5.43;;;16.00;82.20;;;;;;4150940;28;20048;-52
2024/02/05 03:48:50;;;;;;;20.70;4.03;;;16.00;81.10;;;;;;4155288;28;20521;-51
2024/02/05 03:51:31;;;;;;;22.63;4.50;;;16.00;80.90;;;;;;4138295;28;20060;-50
2024/02/05 03:54:12;;;;;;;22.10;4.60;;;16.00;80.80;;;;;;4152752;28;20106;-51
2024/02/05 03:56:53;;;;;;;22.52;5.13;;;16.00;80.80;;;;;;4154520;28;20102;-51
2024/02/05 03:59:34;;;;;;;30.33;5.35;;;16.00;80.60;;;;;;4154199;28;20079;-50
2024/02/05 04:02:17;;;;;;;15.70;4.15;;;16.00;80.60;;;;;;4152525;28;20059;-51
2024/02/05 04:04:58;;;;;;;25.63;5.57;;;16.00;80.60;;;;;;4154395;28;20053;-50
2024/02/05 04:07:39;;;;;;;19.98;4.70;;;16.10;80.70;;;;;;4153052;28;20060;-51
2024/02/05 04:10:20;;;;;;;21.17;4.93;;;16.10;80.40;;;;;;4153614;28;20797;-54
2024/02/05 04:13:01;;;;;;;21.50;4.38;;;16.10;80.10;;;;;;4152990;28;20072;-50
2024/02/05 04:15:42;;;;;;;21.25;4.82;;;16.10;80.10;;;;;;4153014;28;20064;-50
2024/02/05 04:18:28;;;;;;;31.92;6.28;;;16.10;80.20;;;;;;4153234;28;20067;-50
2024/02/05 04:21:09;;;;;;;20.20;4.22;;;16.20;80.10;;;;;;4154179;28;20500;-51
2024/02/05 04:23:49;;;;;;;21.73;5.25;;;16.20;80.10;;;;;;4154727;28;20060;-51
2024/02/05 04:26:30;;;;;;;17.40;4.40;;;16.10;80.00;;;;;;4145037;28;20406;-55
2024/02/05 04:29:20;;;;;;;21.23;5.57;;;16.20;81.20;;;;;;4153892;28;20122;-55
2024/02/05 04:32:01;;;;;;;24.98;6.05;;;16.20;80.00;;;;;;4154580;28;20052;-53
2024/02/05 04:34:43;;;;;;;20.52;5.03;;;16.30;79.90;;;;;;4153561;28;20052;-52
2024/02/05 04:37:25;;;;;;;28.15;4.82;;;16.30;79.80;;;;;;4136791;28;20061;-53
2024/02/05 04:40:08;;;;;;;19.77;5.45;;;16.30;80.60;;;;;;4153085;28;20498;-53
2024/02/05 04:42:49;;;;;;;23.33;5.32;;;16.30;79.70;;;;;;4153983;28;20520;-50
2024/02/05 04:45:31;;;;;;;13.48;3.70;;;16.50;80.30;;;;;;4153996;28;20095;-51
2024/02/05 04:48:14;;;;;;;23.65;4.78;;;16.50;79.10;;;;;;4152824;28;20076;-53
2024/02/05 04:50:59;;;;;;;28.52;4.78;;;16.50;78.80;;;;;;4153080;28;20053;-53
2024/02/05 04:53:40;;;;;;;22.23;5.28;;;16.60;78.80;;;;;;4153610;28;20102;-51
2024/02/05 04:56:21;;;;;;;21.17;6.53;;;16.60;78.70;;;;;;4153625;28;20048;-54
2024/02/05 04:59:01;;;;;;;29.65;5.93;;;16.50;78.50;;;;;;4152522;28;20462;-53
2024/02/05 05:01:42;;;;;;;18.52;4.28;;;16.50;78.30;;;;;;4137265;28;20185;-54
2024/02/05 05:04:23;;;;;;;21.77;4.03;;;16.50;78.60;;;;;;4136648;28;20447;-51
2024/02/05 05:07:05;;;;;;;24.27;5.97;;;16.40;78.60;;;;;;4155251;28;20056;-51
2024/02/05 05:09:46;;;;;;;24.85;6.97;;;16.40;79.00;;;;;;4153249;28;20056;-52
2024/02/05 05:12:28;;;;;;;24.08;5.75;;;16.30;79.10;;;;;;4154249;28;20107;-52
2024/02/05 05:15:09;;;;;;;18.90;5.03;;;16.30;79.00;;;;;;4153556;28;20065;-50
2024/02/05 05:17:50;;;;;;;16.60;4.45;;;16.30;79.20;;;;;;4153619;28;20060;-54
2024/02/05 05:20:31;;;;;;;28.80;6.68;;;16.20;79.30;;;;;;4153345;28;20402;-51
2024/02/05 05:23:15;;;;;;;23.95;4.90;;;16.20;79.30;;;;;;4151295;28;20410;-51
2024/02/05 05:25:56;;;;;;;22.33;4.20;;;16.10;79.30;;;;;;4153690;28;20126;-54
2024/02/05 05:28:40;;;;;;;24.88;5.28;;;16.10;79.70;;;;;;4153505;28;20098;-53
2024/02/05 05:31:21;;;;;;;19.38;5.80;;;16.00;79.80;;;;;;4153877;28;20124;-50
2024/02/05 05:34:04;;;;;;;18.73;5.65;;;16.00;80.90;;;;;;4153730;28;20053;-50
2024/02/05 05:36:46;;;;;;;19.85;4.90;;;16.00;80.20;;;;;;4153438;28;20103;-50
2024/02/05 05:39:29;;;;;;;26.50;5.38;;;16.10;80.20;;;;;;4153182;28;20056;-51
2024/02/05 05:42:10;;;;;;;23.10;4.63;;;16.10;80.80;;;;;;4155374;28;20398;-50
2024/02/05 05:44:51;;;;;;;15.80;4.07;;;16.10;79.80;;;;;;4155455;28;21228;-50
2024/02/05 05:47:33;;;;;;;19.05;4.50;;;16.20;79.90;;;;;;4156015;28;20080;-49
2024/02/05 05:50:15;;;;;;;;;;;16.20;79.60;;;;;;4156835;28;20056;-52
2024/02/05 05:52:56;;;;;;;16.08;5.82;;;16.30;79.40;;;;;;4156351;28;19932;-49
2024/02/05 05:55:38;;;;;;;20.52;4.50;;;16.40;79.40;;;;;;4154414;28;20191;-50
2024/02/05 05:58:21;;;;;;;21.63;4.95;;;16.30;79.10;;;;;;4155021;28;20103;-50
2024/02/05 06:01:05;;;;;;;17.95;4.25;;;16.40;79.10;;;;;;4156491;28;20227;-50
2024/02/05 06:03:46;;;;;;;29.83;5.40;;;16.40;78.90;;;;;;4153590;28;20127;-50
2024/02/05 06:06:27;;;;;;;26.02;4.97;;;16.40;78.70;;;;;;4155974;28;20053;-49
2024/02/05 06:09:08;;;;;;;21.98;5.75;;;16.50;79.00;;;;;;4156275;28;20106;-61
2024/02/05 06:11:51;;;;;;;21.08;5.63;;;16.50;78.70;;;;;;4165689;28;20057;-62
2024/02/05 06:14:32;;;;;;;27.05;5.85;;;16.50;77.90;;;;;;4155074;28;20599;-62
2024/02/05 06:17:14;;;;;;;20.73;4.32;;;16.50;77.80;;;;;;4144864;28;20060;-61
2024/02/05 06:19:55;;;;;;;28.30;4.90;;;16.50;77.70;;;;;;4156527;28;20048;-60
2024/02/05 06:22:36;;;;;;;35.95;5.75;;;16.50;77.80;;;;;;4156766;28;20310;-61
2024/02/05 06:25:17;;;;;;;16.90;4.72;;;16.50;78.10;;;;;;4156057;28;20410;-62
2024/02/05 06:28:00;;;;;;;26.48;4.97;;;16.50;78.00;;;;;;4150401;28;20056;-62
2024/02/05 06:30:43;;;;;;;20.20;5.10;;;16.40;77.90;;;;;;4155626;28;20064;-62
2024/02/05 06:33:24;;;;;;;25.42;6.30;;;16.40;78.00;;;;;;4155818;28;20056;-64
2024/02/05 06:36:05;;;;;;;23.50;6.65;;;16.40;79.20;;;;;;4155512;28;20421;-61
2024/02/05 06:38:46;;;;;;;15.90;4.60;;;16.30;78.90;;;;;;4137411;28;20057;-62
2024/02/05 06:41:27;;;;;;;20.58;5.75;;;16.30;79.00;;;;;;4139929;28;20111;-63
2024/02/05 06:44:10;;;;;;;22.02;5.32;;;16.30;79.20;;;;;;4145241;28;20080;-51
2024/02/05 06:46:51;;;;;;;18.77;5.75;;;16.30;79.40;;;;;;4140292;28;20383;-61
2024/02/05 06:49:32;;;;;;;24.58;5.68;;;16.30;79.40;;;;;;4156192;28;20064;-62
2024/02/05 06:52:13;;;;;;;20.63;5.95;;;16.30;79.10;;;;;;4154937;28;20060;-62
2024/02/05 06:54:54;;;;;;;23.90;5.47;;;16.40;78.90;;;;;;4162547;28;20505;-62
2024/02/05 06:57:35;;;;;;;25.70;5.90;;;16.40;78.60;;;;;;4161188;28;20080;-61
2024/02/05 07:00:18;;;;;;;12.63;3.85;;;16.40;78.30;;;;;;4155685;28;20064;-62
2024/02/05 07:02:59;;;;;;;18.02;4.72;;;16.40;78.30;;;;;;4175982;28;20512;-62
2024/02/05 07:05:40;;;;;;;22.15;5.45;;;16.30;78.60;;;;;;4155790;28;20056;-61
2024/02/05 07:08:21;;;;;;;18.88;4.80;;;16.30;78.50;;;;;;4153656;28;20060;-62
2024/02/05 07:11:02;;;;;;;20.98;5.32;;;16.30;78.70;;;;;;4151254;28;20103;-61
2024/02/05 07:13:43;;;;;;;10.50;3.70;;;16.30;78.90;;;;;;4155230;28;20056;-62
2024/02/05 07:16:25;;;;;;;20.38;4.18;;;16.20;79.10;;;;;;4150509;28;20057;-62
2024/02/05 07:19:06;;;;;;;19.40;4.90;;;16.10;79.20;;;;;;4156491;28;20084;-62
2024/02/05 07:21:47;;;;;;;22.45;5.30;;;16.20;79.30;;;;;;4146233;28;20509;-61
2024/02/05 07:24:28;;;;;;;18.92;4.72;;;16.20;79.20;;;;;;4149950;28;20192;-63
2024/02/05 07:27:09;;;;;;;19.45;4.40;;;16.30;80.00;;;;;;4155175;28;20060;-62
2024/02/05 07:29:50;;;;;;;29.05;6.03;;;16.30;78.90;;;;;;4153696;28;20107;-62
2024/02/05 07:32:32;;;;;;;22.15;4.82;;;16.30;79.00;;;;;;4154124;28;20103;-62
2024/02/05 07:35:13;;;;;;;24.05;4.60;;;16.30;78.60;;;;;;4154336;28;20122;-62
2024/02/05 07:37:54;;;;;;;17.85;5.05;;;16.30;78.30;;;;;;4153437;28;20060;-61
2024/02/05 07:40:35;;;;;;;16.17;4.88;;;16.30;77.80;;;;;;4153071;28;20220;-61
2024/02/05 07:43:16;;;;;;;19.15;4.18;;;16.30;77.70;;;;;;4153984;28;20057;-62
2024/02/05 07:45:57;;;;;;;22.27;5.80;;;16.30;77.40;;;;;;4154129;28;20056;-62
2024/02/05 07:48:40;;;;;;;17.63;4.35;;;16.20;78.00;;;;;;4154402;28;20056;-62
2024/02/05 07:51:21;;;;;;;19.92;3.70;;;16.30;76.90;;;;;;4151653;28;20194;-62
2024/02/05 07:54:03;;;;;;;24.45;4.20;;;16.40;76.30;;;;;;4146409;28;20060;-62
2024/02/05 07:56:45;;;;;;;26.65;4.65;;;16.50;75.70;;;;;;4152523;28;20515;-62
2024/02/05 07:59:25;;;;;;;19.98;4.72;;;16.60;75.20;;;;;;4152960;28;20061;-62
2024/02/05 08:02:08;;;;;;;25.42;4.93;;;16.60;74.70;;;;;;4150906;28;20102;-62
2024/02/05 08:04:50;;;;;;;23.85;4.78;;;16.60;74.30;;;;;;4153345;28;20053;-62
2024/02/05 08:07:31;;;;;;;20.88;4.38;;;16.60;74.30;;;;;;4154699;28;20383;-62
2024/02/05 08:10:12;;;;;;;19.65;4.85;;;16.60;73.70;;;;;;4148114;28;20587;-62
2024/02/05 08:12:53;;;;;;;15.57;4.30;;;16.60;73.80;;;;;;4152157;28;20057;-62
2024/02/05 08:15:34;;;;;;;18.20;4.10;;;16.60;74.00;;;;;;4154093;28;20052;-66
2024/02/05 08:18:16;;;;;;;20.50;4.85;;;16.60;73.80;;;;;;4154279;28;20083;-63
2024/02/05 08:20:58;;;;;;;25.08;4.65;;;16.50;73.70;;;;;;4154400;28;20501;-62
2024/02/05 08:23:39;;;;;;;19.85;3.80;;;16.50;74.20;;;;;;4154394;28;20053;-51
2024/02/05 08:26:21;;;;;;;22.90;4.13;;;16.50;74.40;;;;;;4152753;28;20095;-61
2024/02/05 08:29:02;;;;;;;14.82;3.83;;;16.40;74.30;;;;;;4137642;28;20049;-61
2024/02/05 08:31:43;;;;;;;17.40;4.97;;;16.30;74.60;;;;;;4150793;28;20064;-61
2024/02/05 08:34:24;;;;;;;18.55;3.95;;;16.40;74.60;;;;;;4152841;28;20761;-62
2024/02/05 08:37:06;;;;;;;20.55;4.78;;;16.30;74.60;;;;;;4154574;28;20045;-61
2024/02/05 08:39:47;;;;;;;16.75;3.55;;;16.40;74.30;;;;;;4154415;28;20056;-61
2024/02/05 08:42:28;;;;;;;24.85;4.55;;;16.40;74.00;;;;;;4137314;28;20052;-50
2024/02/05 08:45:12;;;;;;;22.85;4.15;;;16.40;73.90;;;;;;4138782;28;20200;-50
2024/02/05 08:47:53;;;;;;;20.67;4.45;;;16.40;73.60;;;;;;4153827;28;20056;-51
2024/02/05 08:50:35;;;;;;;30.00;5.53;;;16.30;73.80;;;;;;4153322;28;20056;-52
2024/02/05 08:53:18;;;;;;;16.95;5.70;;;16.40;74.20;;;;;;4139415;28;20125;-51
2024/02/05 08:55:58;;;;;;;20.65;3.90;;;16.30;74.30;;;;;;4153910;28;20052;-50
2024/02/05 08:58:40;;;;;;;21.38;6.20;;;16.40;74.10;;;;;;4148807;28;20048;-49
2024/02/05 09:01:21;;;;;;;20.13;4.45;;;16.40;74.10;;;;;;4151885;28;20163;-51
2024/02/05 09:04:02;;;;;;;17.05;3.83;;;16.50;74.60;;;;;;4152869;28;20045;-51
2024/02/05 09:06:43;;;;;;;20.83;5.70;;;16.60;73.40;;;;;;4154046;28;20192;-52
2024/02/05 09:09:26;;;;;;;15.45;3.95;;;16.60;72.50;;;;;;4152855;28;20397;-50
2024/02/05 09:12:08;;;;;;;19.05;4.93;;;16.50;72.70;;;;;;4154201;28;20513;-50
2024/02/05 09:14:50;;;;;;;22.17;4.60;;;16.50;72.90;;;;;;4153598;28;20130;-52
2024/02/05 09:17:31;;;;;;;16.80;3.90;;;16.40;72.80;;;;;;4145414;28;20060;-50
2024/02/05 09:20:12;;;;;;;15.38;3.63;;;16.40;73.10;;;;;;4148054;28;20056;-50
2024/02/05 09:22:53;;;;;;;22.65;4.40;;;16.30;73.60;;;;;;4136125;28;20119;-62
2024/02/05 09:25:35;;;;;;;;;;;16.20;74.00;;;;;;4137558;28;20099;-61
2024/02/05 09:28:16;;;;;;;;;;;16.20;73.90;;;;;;4157410;28;20007;-61
2024/02/05 09:30:57;;;;;;;12.00;4.15;;;16.10;73.90;;;;;;4156839;28;19966;-61
2024/02/05 09:33:41;;;;;;;15.35;3.95;;;16.10;74.20;;;;;;4157215;28;20571;-62
2024/02/05 09:36:22;;;;;;;20.00;5.40;;;16.00;74.90;;;;;;4157070;28;20053;-61
2024/02/05 09:39:04;;;;;;;19.55;4.32;;;16.10;74.80;;;;;;4144399;28;20056;-61
2024/02/05 09:41:48;;;;;;;10.45;3.42;;;16.10;74.60;;;;;;4151766;28;20149;-64
2024/02/05 09:44:35;;;;;;;13.48;3.95;;;16.10;74.50;;;;;;4156897;28;20106;-61
2024/02/05 09:47:18;;;;;;;16.33;3.85;;;16.20;74.20;;;;;;4155926;28;20761;-51
2024/02/05 09:50:00;;;;;;;18.58;4.28;;;16.20;74.30;;;;;;4156305;28;20119;-51
2024/02/05 09:52:45;;;;;;;11.43;3.58;;;16.20;74.30;;;;;;4139841;28;20056;-51
2024/02/05 09:55:27;;;;;;;20.02;4.40;;;16.10;74.30;;;;;;4146423;28;20095;-52
2024/02/05 09:58:10;;;;;;;18.30;3.45;;;16.10;74.20;;;;;;4154451;28;20068;-54
2024/02/05 10:00:52;;;;;;;15.93;4.63;;;16.10;74.20;;;;;;4147620;28;20530;-61
2024/02/05 10:03:34;;;;;;;15.02;3.85;;;16.10;74.50;;;;;;4126563;28;20061;-61
2024/02/05 10:06:18;;;;;;;14.23;3.78;;;16.20;74.20;;;;;;4156301;28;20052;-61
2024/02/05 10:09:04;;;;;;;19.05;4.18;;;16.30;74.20;;;;;;4155379;28;20096;-61
2024/02/05 10:11:49;;;;;;;21.75;5.43;;;16.30;73.60;;;;;;4155018;28;20056;-63
2024/02/05 10:14:32;;;;;;;18.88;4.68;;;16.40;73.40;;;;;;4154996;28;20060;-62
2024/02/05 10:17:12;;;;;;;13.75;3.95;;;16.40;73.30;;;;;;4140634;28;20490;-62
2024/02/05 10:19:54;;;;;;;21.15;4.05;;;16.40;73.20;;;;;;4155842;28;20049;-61
2024/02/05 10:22:44;;;;;;;17.05;4.38;;;16.30;73.40;;;;;;4140195;28;20064;-50
2024/02/05 10:25:27;;;;;;;25.08;4.00;;;16.30;74.20;;;;;;4142046;28;20717;-54
2024/02/05 10:28:08;;;;;;;11.27;3.30;;;16.30;73.80;;;;;;4153427;28;20057;-51
2024/02/05 10:30:51;;;;;;;15.05;3.70;;;16.30;73.80;;;;;;4149713;28;20067;-54
2024/02/05 10:33:32;;;;;;;18.98;4.57;;;16.20;73.80;;;;;;4152057;28;20064;-54
2024/02/05 10:36:14;;;;;;;10.88;3.50;;;16.30;73.90;;;;;;4155123;28;20060;-55
2024/02/05 10:38:56;;;;;;;20.50;4.07;;;16.30;73.70;;;;;;4157603;28;20048;-55
2024/02/05 10:41:38;;;;;;;14.38;3.83;;;16.40;73.20;;;;;;4168503;28;20060;-53
2024/02/05 10:44:20;;;;;;;13.55;3.95;;;16.30;73.10;;;;;;4139665;28;20061;-61
2024/02/05 10:47:06;;;;;;;11.80;3.53;;;16.30;73.50;;;;;;4139308;28;20060;-53
2024/02/05 10:49:48;;;;;;;14.23;4.07;;;16.30;73.80;;;;;;4153742;28;20068;-51
2024/02/05 10:52:29;;;;;;;13.82;3.78;;;16.20;74.20;;;;;;4154521;28;20179;-52
2024/02/05 10:55:12;;;;;;;19.85;4.72;;;16.10;74.00;;;;;;4154678;28;20068;-61
2024/02/05 10:57:56;;;;;;;14.10;4.15;;;16.10;74.00;;;;;;4155835;28;20127;-62
2024/02/05 11:00:37;;;;;;;12.10;4.03;;;16.10;74.40;;;;;;4154835;28;20053;-59
2024/02/05 11:03:22;;;;;;;16.20;4.33;;;16.00;74.40;;;;;;4155764;28;20505;-62
2024/02/05 11:06:06;;;;;;;17.35;4.88;;;16.00;74.40;;;;;;4150749;28;20100;-61
2024/02/05 11:08:48;;;;;;;14.95;3.97;;;15.90;74.60;;;;;;4151423;28;20060;-62
2024/02/05 11:11:29;;;;;;;13.30;3.88;;;15.90;75.30;;;;;;4136654;28;20513;-61
2024/02/05 11:14:12;;;;;;;;;;;15.90;76.00;;;;;;4155847;28;20056;-61
2024/02/05 11:16:52;;;;;;;;;;;16.10;75.00;;;;;;4155677;28;19928;-61
2024/02/05 11:19:36;;;;;;;10.95;3.40;;;16.10;74.60;;;;;;4150279;28;20392;-61
2024/02/05 11:22:19;;;;;;;13.00;3.78;;;16.20;74.00;;;;;;4152847;28;20075;-62
2024/02/05 11:25:01;;;;;;;17.67;3.92;;;16.20;74.00;;;;;;4155318;28;20075;-62
2024/02/05 11:27:44;;;;;;;14.73;4.10;;;16.20;74.00;;;;;;4133935;28;20659;-62
2024/02/05 11:30:24;;;;;;;15.13;4.50;;;16.30;73.70;;;;;;4138676;28;20165;-62
2024/02/05 11:33:06;;;;;;;16.08;4.18;;;16.40;73.30;;;;;;4151019;28;20106;-63
2024/02/05 11:35:51;;;;;;;9.48;3.53;;;16.40;73.20;;;;;;4141381;28;20073;-62
2024/02/05 11:38:33;;;;;;;6.82;3.10;;;16.40;73.10;;;;;;4155058;28;20134;-54
2024/02/05 11:41:14;;;;;;;12.57;4.00;;;16.40;73.10;;;;;;4152323;28;20417;-52
2024/02/05 11:44:03;;;;;;;14.88;3.92;;;16.30;72.90;;;;;;4154842;28;20087;-55
2024/02/05 11:46:44;;;;;;;12.70;4.53;;;16.30;72.90;;;;;;4155138;28;20107;-55
2024/02/05 11:49:31;;;;;;;10.68;3.15;;;16.30;72.60;;;;;;4145144;28;20056;-62
2024/02/05 11:52:16;;;;;;;17.02;3.85;;;16.20;74.00;;;;;;4153566;28;20064;-62
2024/02/05 11:54:57;;;;;;;12.15;3.72;;;16.10;73.30;;;;;;4154251;28;20076;-62
2024/02/05 11:57:38;;;;;;;16.55;3.85;;;16.10;73.50;;;;;;4154166;28;20053;-62
2024/02/05 12:00:21;;;;;;;17.35;3.97;;;16.00;74.00;;;;;;4151024;28;20180;-64
2024/02/05 12:03:02;;;;;;;17.00;3.78;;;15.90;74.10;;;;;;4155365;28;20068;-63
2024/02/05 12:05:43;;;;;;;7.95;2.75;;;15.90;74.10;;;;;;4149625;28;20103;-63
2024/02/05 12:08:26;;;;;;;10.00;2.83;;;15.90;74.80;;;;;;4138351;28;20060;-64
2024/02/05 12:11:08;;;;;;;14.98;4.00;;;15.80;75.20;;;;;;4151837;28;20127;-62
2024/02/05 12:13:57;;;;;;;10.57;3.95;;;15.80;75.30;;;;;;4165109;28;20462;-63
2024/02/05 12:16:40;;;;;;;9.23;3.05;;;15.70;75.30;;;;;;4155292;28;20057;-51
2024/02/05 12:19:22;;;;;;;11.68;3.42;;;15.70;76.10;;;;;;4153683;28;20417;-59
2024/02/05 12:22:03;;;;;;;13.27;3.75;;;15.70;77.00;;;;;;4153992;28;20048;-60
2024/02/05 12:24:46;;;;;;;13.52;4.28;;;15.70;77.90;;;;;;4150956;28;20056;-50
2024/02/05 12:27:28;;;;;;;21.00;3.92;;;15.80;78.00;;;;;;4138738;28;20052;-49
2024/02/05 12:30:10;;;;;;;16.45;4.22;;;15.90;77.70;;;;;;4146217;28;20447;-50
2024/02/05 12:32:54;;;;;;;;;;;16.00;77.30;;;;;;4155276;28;20118;-47
2024/02/05 12:35:35;;;;;;;17.90;4.00;;;16.00;76.90;;;;;;4151984;28;19927;-48
2024/02/05 12:38:17;;;;;;;13.88;3.72;;;16.10;76.80;;;;;;4149460;28;20061;-45
2024/02/05 12:40:59;;;;;;;13.48;4.47;;;16.10;76.80;;;;;;4154585;28;20048;-48
2024/02/05 12:43:41;;;;;;;14.05;3.90;;;16.20;76.50;;;;;;4137873;28;20082;-47
2024/02/05 12:46:22;;;;;;;11.95;3.55;;;16.30;76.00;;;;;;4138250;28;20065;-47
2024/02/05 12:49:03;;;;;;;16.00;4.20;;;16.40;75.60;;;;;;4133993;28;20502;-47
2024/02/05 12:51:44;;;;;;;;;;;16.40;75.50;;;;;;4143488;28;20052;-50
2024/02/05 12:54:26;;;;;;;13.38;3.40;;;16.40;75.30;;;;;;4147723;28;19931;-61
2024/02/05 12:57:08;;;;;;;;;;;16.40;75.40;;;;;;4138833;28;20413;-59
2024/02/05 12:59:49;;;;;;;15.48;3.92;;;16.40;76.00;;;;;;4154347;28;19943;-48
2024/02/05 13:02:31;;;;;;;13.63;3.63;;;16.40;75.90;;;;;;4137482;28;20088;-47
2024/02/05 13:05:13;;;;;;;18.65;4.13;;;16.50;74.70;;;;;;4152754;28;20379;-47
2024/02/05 13:07:54;;;;;;;16.63;4.20;;;16.50;74.60;;;;;;4153740;28;20048;-47
2024/02/05 13:10:40;;;;;;;18.23;4.15;;;16.50;74.20;;;;;;4136617;28;20364;-47
2024/02/05 13:13:23;;;;;;;17.70;4.18;;;16.50;74.10;;;;;;4132418;28;20064;-46
2024/02/05 13:16:07;;;;;;;13.60;3.70;;;16.50;74.00;;;;;;4121292;28;20077;-48
2024/02/05 13:18:49;;;;;;;14.05;4.03;;;16.50;74.00;;;;;;4136232;28;20060;-47
2024/02/05 13:21:30;;;;;;;;;;;16.50;74.80;;;;;;4152534;28;20176;-48
2024/02/05 13:24:14;;;;;;;11.65;3.53;;;16.50;73.80;;;;;;4129700;28;20258;-47
2024/02/05 13:26:55;;;;;;;13.98;3.58;;;16.50;74.00;;;;;;4152108;28;20049;-48
2024/02/05 13:29:37;;;;;;;18.85;4.90;;;16.50;74.00;;;;;;4153520;28;20056;-48
2024/02/05 13:32:18;;;;;;;16.70;4.53;;;16.40;73.70;;;;;;4152055;28;20056;-46
2024/02/05 13:34:59;;;;;;;9.07;3.08;;;16.40;73.60;;;;;;4154097;28;20423;-47
2024/02/05 13:37:40;;;;;;;12.35;4.07;;;16.40;74.00;;;;;;4153707;28;20794;-46
2024/02/05 13:40:21;;;;;;;18.75;3.67;;;16.30;74.20;;;;;;4137417;28;20060;-46
2024/02/05 13:43:03;;;;;;;19.92;3.75;;;16.30;74.30;;;;;;4151675;28;20129;-61
2024/02/05 13:45:45;;;;;;;22.75;4.78;;;16.20;74.10;;;;;;4153825;28;20061;-61
2024/02/05 13:48:29;;;;;;;10.18;3.40;;;16.20;74.20;;;;;;4153493;28;20638;-48
2024/02/05 13:51:09;;;;;;;10.70;3.00;;;16.20;74.50;;;;;;4150837;28;20120;-46
2024/02/05 13:53:50;;;;;;;19.02;4.82;;;16.20;74.60;;;;;;4153157;28;20112;-61
2024/02/05 13:56:32;;;;;;;18.20;4.90;;;16.30;74.70;;;;;;4152622;28;20181;-60